sensor_id;sensor_type;location;lat;lon;timestamp;P1;durP1;ratioP1;P2;durP2;ratioP2
56997;SDS011;42890;44.244;22.530;2023-03-01T00:01:54;80.35;;;55.38;;
56997;SDS011;42890;44.244;22.530;2023-03-01T00:04:20;77.63;;;56.15;;
56997;SDS011;42890;44.244;22.530;2023-03-01T00:06:46;65.55;;;56.05;;
56997;SDS011;42890;44.244;22.530;2023-03-01T00:09:13;65.65;;;54.15;;
56997;SDS011;42890;44.244;22.530;2023-03-01T00:11:39;79.05;;;56.75;;
56997;SDS011;42890;44.244;22.530;2023-03-01T00:14:05;61.28;;;54.63;;
56997;SDS011;42890;44.244;22.530;2023-03-01T00:16:33;71.53;;;56.70;;
56997;SDS011;42890;44.244;22.530;2023-03-01T00:18:59;71.95;;;54.92;;
56997;SDS011;42890;44.244;22.530;2023-03-01T00:21:26;70.85;;;58.70;;
56997;SDS011;42890;44.244;22.530;2023-03-01T00:23:52;75.30;;;60.03;;
56997;SDS011;42890;44.244;22.530;2023-03-01T00:26:19;75.28;;;57.97;;
56997;SDS011;42890;44.244;22.530;2023-03-01T00:28:46;70.45;;;55.95;;
56997;SDS011;42890;44.244;22.530;2023-03-01T00:31:13;68.07;;;57.10;;
56997;SDS011;42890;44.244;22.530;2023-03-01T00:33:40;71.47;;;55.60;;
56997;SDS011;42890;44.244;22.530;2023-03-01T00:36:06;73.05;;;57.05;;
56997;SDS011;42890;44.244;22.530;2023-03-01T00:38:36;72.72;;;57.03;;
56997;SDS011;42890;44.244;22.530;2023-03-01T00:41:03;65.10;;;54.13;;
56997;SDS011;42890;44.244;22.530;2023-03-01T00:43:30;66.30;;;54.88;;
56997;SDS011;42890;44.244;22.530;2023-03-01T00:46:01;73.47;;;58.67;;
56997;SDS011;42890;44.244;22.530;2023-03-01T00:48:27;82.30;;;58.63;;
56997;SDS011;42890;44.244;22.530;2023-03-01T00:50:53;75.07;;;57.33;;
56997;SDS011;42890;44.244;22.530;2023-03-01T00:53:19;75.35;;;58.95;;
56997;SDS011;42890;44.244;22.530;2023-03-01T00:55:45;72.22;;;58.03;;
56997;SDS011;42890;44.244;22.530;2023-03-01T00:58:11;73.68;;;57.50;;
56997;SDS011;42890;44.244;22.530;2023-03-01T01:00:37;68.53;;;56.88;;
56997;SDS011;42890;44.244;22.530;2023-03-01T01:03:03;83.30;;;58.08;;
56997;SDS011;42890;44.244;22.530;2023-03-01T01:05:29;79.38;;;59.55;;
56997;SDS011;42890;44.244;22.530;2023-03-01T01:07:56;88.13;;;60.67;;
56997;SDS011;42890;44.244;22.530;2023-03-01T01:10:22;80.82;;;60.58;;
56997;SDS011;42890;44.244;22.530;2023-03-01T01:12:48;73.25;;;59.25;;
56997;SDS011;42890;44.244;22.530;2023-03-01T01:15:14;79.97;;;59.92;;
56997;SDS011;42890;44.244;22.530;2023-03-01T01:17:41;75.35;;;58.15;;
56997;SDS011;42890;44.244;22.530;2023-03-01T01:20:07;73.65;;;59.55;;
56997;SDS011;42890;44.244;22.530;2023-03-01T01:22:34;81.95;;;58.28;;
56997;SDS011;42890;44.244;22.530;2023-03-01T01:25:00;77.47;;;58.78;;
56997;SDS011;42890;44.244;22.530;2023-03-01T01:27:26;75.47;;;58.53;;
56997;SDS011;42890;44.244;22.530;2023-03-01T01:29:52;80.25;;;59.58;;
56997;SDS011;42890;44.244;22.530;2023-03-01T01:32:18;78.35;;;60.90;;
56997;SDS011;42890;44.244;22.530;2023-03-01T01:34:45;73.88;;;59.00;;
56997;SDS011;42890;44.244;22.530;2023-03-01T01:37:11;91.15;;;59.42;;
56997;SDS011;42890;44.244;22.530;2023-03-01T01:39:37;93.80;;;61.63;;
56997;SDS011;42890;44.244;22.530;2023-03-01T01:42:03;77.72;;;58.63;;
56997;SDS011;42890;44.244;22.530;2023-03-01T01:44:30;73.85;;;59.13;;
56997;SDS011;42890;44.244;22.530;2023-03-01T01:46:57;79.18;;;58.80;;
56997;SDS011;42890;44.244;22.530;2023-03-01T01:51:51;77.65;;;58.58;;
56997;SDS011;42890;44.244;22.530;2023-03-01T01:54:23;66.00;;;55.58;;
56997;SDS011;42890;44.244;22.530;2023-03-01T01:56:52;61.85;;;54.03;;
56997;SDS011;42890;44.244;22.530;2023-03-01T01:59:21;65.93;;;56.40;;
56997;SDS011;42890;44.244;22.530;2023-03-01T02:01:49;68.13;;;57.75;;
56997;SDS011;42890;44.244;22.530;2023-03-01T02:04:16;61.88;;;54.63;;
56997;SDS011;42890;44.244;22.530;2023-03-01T02:06:48;65.70;;;56.10;;
56997;SDS011;42890;44.244;22.530;2023-03-01T02:09:16;79.07;;;56.22;;
56997;SDS011;42890;44.244;22.530;2023-03-01T02:11:44;64.35;;;55.25;;
56997;SDS011;42890;44.244;22.530;2023-03-01T02:14:10;68.00;;;55.67;;
56997;SDS011;42890;44.244;22.530;2023-03-01T02:16:36;68.00;;;56.67;;
56997;SDS011;42890;44.244;22.530;2023-03-01T02:19:03;64.32;;;54.75;;
56997;SDS011;42890;44.244;22.530;2023-03-01T02:21:35;58.28;;;51.85;;
56997;SDS011;42890;44.244;22.530;2023-03-01T02:26:45;64.85;;;52.45;;
56997;SDS011;42890;44.244;22.530;2023-03-01T02:29:13;61.03;;;52.03;;
56997;SDS011;42890;44.244;22.530;2023-03-01T02:31:39;60.15;;;51.95;;
56997;SDS011;42890;44.244;22.530;2023-03-01T02:34:18;59.70;;;51.90;;
56997;SDS011;42890;44.244;22.530;2023-03-01T02:36:53;59.33;;;50.60;;
56997;SDS011;42890;44.244;22.530;2023-03-01T02:39:27;57.40;;;51.15;;
56997;SDS011;42890;44.244;22.530;2023-03-01T02:41:55;57.65;;;51.17;;
56997;SDS011;42890;44.244;22.530;2023-03-01T02:44:21;57.90;;;51.58;;
56997;SDS011;42890;44.244;22.530;2023-03-01T02:46:49;58.80;;;50.38;;
56997;SDS011;42890;44.244;22.530;2023-03-01T02:49:18;57.88;;;49.97;;
56997;SDS011;42890;44.244;22.530;2023-03-01T02:57:10;55.35;;;49.30;;
56997;SDS011;42890;44.244;22.530;2023-03-01T02:59:37;55.08;;;49.15;;
56997;SDS011;42890;44.244;22.530;2023-03-01T03:02:17;58.47;;;49.08;;
56997;SDS011;42890;44.244;22.530;2023-03-01T03:04:45;55.25;;;47.72;;
56997;SDS011;42890;44.244;22.530;2023-03-01T03:07:11;55.45;;;49.20;;
56997;SDS011;42890;44.244;22.530;2023-03-01T03:09:37;55.08;;;48.38;;
56997;SDS011;42890;44.244;22.530;2023-03-01T03:12:03;53.17;;;47.40;;
56997;SDS011;42890;44.244;22.530;2023-03-01T03:14:30;54.17;;;47.33;;
56997;SDS011;42890;44.244;22.530;2023-03-01T03:16:59;53.97;;;46.70;;
56997;SDS011;42890;44.244;22.530;2023-03-01T03:19:25;55.28;;;49.00;;
56997;SDS011;42890;44.244;22.530;2023-03-01T03:21:51;55.97;;;48.22;;
56997;SDS011;42890;44.244;22.530;2023-03-01T03:24:18;58.72;;;48.67;;
56997;SDS011;42890;44.244;22.530;2023-03-01T03:26:44;56.22;;;49.28;;
56997;SDS011;42890;44.244;22.530;2023-03-01T03:29:10;54.58;;;48.65;;
56997;SDS011;42890;44.244;22.530;2023-03-01T03:31:36;54.92;;;48.83;;
56997;SDS011;42890;44.244;22.530;2023-03-01T03:34:02;67.68;;;52.28;;
56997;SDS011;42890;44.244;22.530;2023-03-01T03:36:28;73.60;;;55.92;;
56997;SDS011;42890;44.244;22.530;2023-03-01T03:38:54;67.60;;;55.78;;
56997;SDS011;42890;44.244;22.530;2023-03-01T03:41:20;63.38;;;56.22;;
56997;SDS011;42890;44.244;22.530;2023-03-01T03:43:46;63.78;;;54.92;;
56997;SDS011;42890;44.244;22.530;2023-03-01T03:46:13;61.30;;;53.53;;
56997;SDS011;42890;44.244;22.530;2023-03-01T03:48:42;61.47;;;50.85;;
56997;SDS011;42890;44.244;22.530;2023-03-01T03:51:15;60.22;;;51.00;;
56997;SDS011;42890;44.244;22.530;2023-03-01T03:53:42;62.05;;;53.00;;
56997;SDS011;42890;44.244;22.530;2023-03-01T03:56:08;66.75;;;52.85;;
56997;SDS011;42890;44.244;22.530;2023-03-01T03:58:35;59.53;;;52.88;;
56997;SDS011;42890;44.244;22.530;2023-03-01T04:01:01;61.47;;;52.72;;
56997;SDS011;42890;44.244;22.530;2023-03-01T04:03:28;59.08;;;51.72;;
56997;SDS011;42890;44.244;22.530;2023-03-01T04:05:56;56.42;;;50.20;;
56997;SDS011;42890;44.244;22.530;2023-03-01T04:08:22;58.83;;;50.75;;
56997;SDS011;42890;44.244;22.530;2023-03-01T04:10:50;57.10;;;50.42;;
56997;SDS011;42890;44.244;22.530;2023-03-01T04:13:19;57.38;;;49.60;;
56997;SDS011;42890;44.244;22.530;2023-03-01T04:15:47;54.92;;;47.08;;
56997;SDS011;42890;44.244;22.530;2023-03-01T04:18:14;49.33;;;44.08;;
56997;SDS011;42890;44.244;22.530;2023-03-01T04:20:41;50.58;;;44.97;;
56997;SDS011;42890;44.244;22.530;2023-03-01T04:23:09;48.63;;;43.17;;
56997;SDS011;42890;44.244;22.530;2023-03-01T04:25:46;51.20;;;44.97;;
56997;SDS011;42890;44.244;22.530;2023-03-01T04:28:14;50.92;;;45.45;;
56997;SDS011;42890;44.244;22.530;2023-03-01T04:30:41;53.25;;;45.95;;
56997;SDS011;42890;44.244;22.530;2023-03-01T04:33:08;49.72;;;44.45;;
56997;SDS011;42890;44.244;22.530;2023-03-01T04:35:35;53.92;;;46.63;;
56997;SDS011;42890;44.244;22.530;2023-03-01T04:38:02;50.25;;;44.22;;
56997;SDS011;42890;44.244;22.530;2023-03-01T04:40:28;50.65;;;44.92;;
56997;SDS011;42890;44.244;22.530;2023-03-01T04:42:54;50.47;;;44.13;;
56997;SDS011;42890;44.244;22.530;2023-03-01T04:45:21;48.00;;;42.63;;
56997;SDS011;42890;44.244;22.530;2023-03-01T04:47:47;48.92;;;43.60;;
56997;SDS011;42890;44.244;22.530;2023-03-01T04:50:15;52.30;;;45.33;;
56997;SDS011;42890;44.244;22.530;2023-03-01T04:52:41;49.53;;;44.25;;
56997;SDS011;42890;44.244;22.530;2023-03-01T04:55:08;50.47;;;45.08;;
56997;SDS011;42890;44.244;22.530;2023-03-01T04:57:34;52.50;;;44.30;;
56997;SDS011;42890;44.244;22.530;2023-03-01T05:00:00;51.55;;;45.72;;
56997;SDS011;42890;44.244;22.530;2023-03-01T05:02:45;50.72;;;44.70;;
56997;SDS011;42890;44.244;22.530;2023-03-01T05:05:11;51.75;;;46.15;;
56997;SDS011;42890;44.244;22.530;2023-03-01T05:07:38;54.83;;;46.10;;
56997;SDS011;42890;44.244;22.530;2023-03-01T05:10:04;51.10;;;45.38;;
56997;SDS011;42890;44.244;22.530;2023-03-01T05:12:30;50.53;;;44.95;;
56997;SDS011;42890;44.244;22.530;2023-03-01T05:14:56;64.03;;;46.08;;
56997;SDS011;42890;44.244;22.530;2023-03-01T05:17:23;54.78;;;45.08;;
56997;SDS011;42890;44.244;22.530;2023-03-01T05:19:49;51.90;;;44.92;;
56997;SDS011;42890;44.244;22.530;2023-03-01T05:22:15;51.40;;;45.47;;
56997;SDS011;42890;44.244;22.530;2023-03-01T05:24:41;50.65;;;45.15;;
56997;SDS011;42890;44.244;22.530;2023-03-01T05:27:08;51.55;;;45.78;;
56997;SDS011;42890;44.244;22.530;2023-03-01T05:29:34;51.22;;;45.75;;
56997;SDS011;42890;44.244;22.530;2023-03-01T05:32:00;51.45;;;45.88;;
56997;SDS011;42890;44.244;22.530;2023-03-01T05:34:31;54.17;;;46.92;;
56997;SDS011;42890;44.244;22.530;2023-03-01T05:36:58;54.58;;;45.80;;
56997;SDS011;42890;44.244;22.530;2023-03-01T05:39:25;50.00;;;44.70;;
56997;SDS011;42890;44.244;22.530;2023-03-01T05:41:52;51.92;;;46.55;;
56997;SDS011;42890;44.244;22.530;2023-03-01T05:44:18;49.40;;;44.15;;
56997;SDS011;42890;44.244;22.530;2023-03-01T05:46:45;52.10;;;46.53;;
56997;SDS011;42890;44.244;22.530;2023-03-01T05:49:11;50.90;;;45.45;;
56997;SDS011;42890;44.244;22.530;2023-03-01T05:51:41;48.40;;;43.33;;
56997;SDS011;42890;44.244;22.530;2023-03-01T05:54:08;47.47;;;42.22;;
56997;SDS011;42890;44.244;22.530;2023-03-01T05:56:34;49.75;;;44.40;;
56997;SDS011;42890;44.244;22.530;2023-03-01T05:59:01;53.22;;;45.60;;
56997;SDS011;42890;44.244;22.530;2023-03-01T06:01:27;54.67;;;48.83;;
56997;SDS011;42890;44.244;22.530;2023-03-01T06:03:54;55.22;;;46.25;;
56997;SDS011;42890;44.244;22.530;2023-03-01T06:06:21;55.05;;;47.38;;
56997;SDS011;42890;44.244;22.530;2023-03-01T06:08:47;52.65;;;46.97;;
56997;SDS011;42890;44.244;22.530;2023-03-01T06:11:13;54.20;;;46.75;;
56997;SDS011;42890;44.244;22.530;2023-03-01T06:13:41;52.42;;;46.63;;
56997;SDS011;42890;44.244;22.530;2023-03-01T06:16:07;56.72;;;48.10;;
56997;SDS011;42890;44.244;22.530;2023-03-01T06:18:33;57.78;;;47.65;;
56997;SDS011;42890;44.244;22.530;2023-03-01T06:20:59;55.85;;;47.97;;
56997;SDS011;42890;44.244;22.530;2023-03-01T06:23:25;57.63;;;49.22;;
56997;SDS011;42890;44.244;22.530;2023-03-01T06:25:51;59.83;;;49.67;;
56997;SDS011;42890;44.244;22.530;2023-03-01T06:28:18;62.35;;;48.15;;
56997;SDS011;42890;44.244;22.530;2023-03-01T06:30:44;57.53;;;50.05;;
56997;SDS011;42890;44.244;22.530;2023-03-01T06:33:11;57.80;;;47.95;;
56997;SDS011;42890;44.244;22.530;2023-03-01T06:35:37;58.20;;;49.80;;
56997;SDS011;42890;44.244;22.530;2023-03-01T06:38:03;57.08;;;49.58;;
56997;SDS011;42890;44.244;22.530;2023-03-01T06:40:29;56.28;;;48.80;;
56997;SDS011;42890;44.244;22.530;2023-03-01T06:42:56;53.65;;;47.42;;
56997;SDS011;42890;44.244;22.530;2023-03-01T06:45:22;54.40;;;48.20;;
56997;SDS011;42890;44.244;22.530;2023-03-01T06:47:48;53.05;;;46.67;;
56997;SDS011;42890;44.244;22.530;2023-03-01T06:50:15;56.20;;;47.47;;
56997;SDS011;42890;44.244;22.530;2023-03-01T06:52:41;52.25;;;46.63;;
56997;SDS011;42890;44.244;22.530;2023-03-01T06:55:09;55.35;;;48.17;;
56997;SDS011;42890;44.244;22.530;2023-03-01T06:57:36;50.50;;;45.03;;
56997;SDS011;42890;44.244;22.530;2023-03-01T07:00:05;50.17;;;44.75;;
56997;SDS011;42890;44.244;22.530;2023-03-01T07:02:32;51.50;;;45.15;;
56997;SDS011;42890;44.244;22.530;2023-03-01T07:04:58;52.47;;;45.58;;
56997;SDS011;42890;44.244;22.530;2023-03-01T07:07:24;51.30;;;45.67;;
56997;SDS011;42890;44.244;22.530;2023-03-01T07:09:50;53.60;;;47.65;;
56997;SDS011;42890;44.244;22.530;2023-03-01T07:12:16;58.22;;;47.65;;
56997;SDS011;42890;44.244;22.530;2023-03-01T07:14:43;50.47;;;44.80;;
56997;SDS011;42890;44.244;22.530;2023-03-01T07:17:09;50.40;;;44.83;;
56997;SDS011;42890;44.244;22.530;2023-03-01T07:19:35;53.88;;;47.83;;
56997;SDS011;42890;44.244;22.530;2023-03-01T07:22:03;71.93;;;56.72;;
56997;SDS011;42890;44.244;22.530;2023-03-01T07:24:29;75.43;;;57.80;;
56997;SDS011;42890;44.244;22.530;2023-03-01T07:26:55;81.63;;;61.97;;
56997;SDS011;42890;44.244;22.530;2023-03-01T07:29:21;77.40;;;59.17;;
56997;SDS011;42890;44.244;22.530;2023-03-01T07:31:47;54.65;;;47.22;;
56997;SDS011;42890;44.244;22.530;2023-03-01T07:34:13;52.70;;;46.90;;
56997;SDS011;42890;44.244;22.530;2023-03-01T07:36:39;50.30;;;45.10;;
56997;SDS011;42890;44.244;22.530;2023-03-01T07:39:08;49.75;;;44.63;;
56997;SDS011;42890;44.244;22.530;2023-03-01T07:41:34;73.18;;;59.25;;
56997;SDS011;42890;44.244;22.530;2023-03-01T07:44:00;54.47;;;48.47;;
56997;SDS011;42890;44.244;22.530;2023-03-01T07:46:26;61.75;;;54.53;;
56997;SDS011;42890;44.244;22.530;2023-03-01T07:48:52;43.22;;;38.85;;
56997;SDS011;42890;44.244;22.530;2023-03-01T07:51:18;51.45;;;46.25;;
56997;SDS011;42890;44.244;22.530;2023-03-01T07:53:48;42.67;;;38.38;;
56997;SDS011;42890;44.244;22.530;2023-03-01T07:56:15;71.95;;;60.03;;
56997;SDS011;42890;44.244;22.530;2023-03-01T07:58:42;46.08;;;41.08;;
56997;SDS011;42890;44.244;22.530;2023-03-01T08:01:10;57.85;;;45.72;;
56997;SDS011;42890;44.244;22.530;2023-03-01T08:03:37;52.55;;;46.92;;
56997;SDS011;42890;44.244;22.530;2023-03-01T08:06:04;40.17;;;36.17;;
56997;SDS011;42890;44.244;22.530;2023-03-01T08:08:31;46.42;;;41.88;;
56997;SDS011;42890;44.244;22.530;2023-03-01T08:10:58;49.03;;;43.92;;
56997;SDS011;42890;44.244;22.530;2023-03-01T08:13:24;47.33;;;42.42;;
56997;SDS011;42890;44.244;22.530;2023-03-01T08:15:50;69.03;;;61.17;;
56997;SDS011;42890;44.244;22.530;2023-03-01T08:18:17;47.90;;;42.80;;
56997;SDS011;42890;44.244;22.530;2023-03-01T08:20:44;38.45;;;34.65;;
56997;SDS011;42890;44.244;22.530;2023-03-01T08:23:10;48.38;;;43.20;;
56997;SDS011;42890;44.244;22.530;2023-03-01T08:25:37;46.28;;;41.20;;
56997;SDS011;42890;44.244;22.530;2023-03-01T08:28:03;44.85;;;40.38;;
56997;SDS011;42890;44.244;22.530;2023-03-01T08:30:30;49.38;;;44.38;;
56997;SDS011;42890;44.244;22.530;2023-03-01T08:32:56;65.82;;;59.28;;
56997;SDS011;42890;44.244;22.530;2023-03-01T08:35:22;58.70;;;52.85;;
56997;SDS011;42890;44.244;22.530;2023-03-01T08:37:49;45.25;;;40.70;;
56997;SDS011;42890;44.244;22.530;2023-03-01T08:40:15;45.05;;;40.65;;
56997;SDS011;42890;44.244;22.530;2023-03-01T08:42:41;40.22;;;36.15;;
56997;SDS011;42890;44.244;22.530;2023-03-01T08:45:08;44.80;;;40.22;;
56997;SDS011;42890;44.244;22.530;2023-03-01T08:47:35;41.15;;;37.15;;
56997;SDS011;42890;44.244;22.530;2023-03-01T08:50:01;39.10;;;35.22;;
56997;SDS011;42890;44.244;22.530;2023-03-01T08:52:28;38.53;;;34.75;;
56997;SDS011;42890;44.244;22.530;2023-03-01T08:54:55;40.95;;;36.83;;
56997;SDS011;42890;44.244;22.530;2023-03-01T08:57:21;40.47;;;36.58;;
56997;SDS011;42890;44.244;22.530;2023-03-01T08:59:47;47.00;;;41.95;;
56997;SDS011;42890;44.244;22.530;2023-03-01T09:02:15;64.28;;;51.75;;
56997;SDS011;42890;44.244;22.530;2023-03-01T09:04:41;76.03;;;56.65;;
56997;SDS011;42890;44.244;22.530;2023-03-01T09:07:07;46.42;;;39.25;;
56997;SDS011;42890;44.244;22.530;2023-03-01T09:09:34;62.60;;;42.65;;
56997;SDS011;42890;44.244;22.530;2023-03-01T09:12:00;68.97;;;46.28;;
56997;SDS011;42890;44.244;22.530;2023-03-01T09:14:27;49.17;;;40.80;;
56997;SDS011;42890;44.244;22.530;2023-03-01T09:16:53;73.53;;;48.50;;
56997;SDS011;42890;44.244;22.530;2023-03-01T09:19:19;42.53;;;36.17;;
56997;SDS011;42890;44.244;22.530;2023-03-01T09:21:53;43.30;;;35.72;;
56997;SDS011;42890;44.244;22.530;2023-03-01T09:24:24;40.28;;;35.83;;
56997;SDS011;42890;44.244;22.530;2023-03-01T09:26:52;43.88;;;38.08;;
56997;SDS011;42890;44.244;22.530;2023-03-01T09:29:18;44.47;;;37.83;;
56997;SDS011;42890;44.244;22.530;2023-03-01T09:31:44;56.00;;;41.00;;
56997;SDS011;42890;44.244;22.530;2023-03-01T09:34:11;38.88;;;34.40;;
56997;SDS011;42890;44.244;22.530;2023-03-01T09:36:38;36.08;;;32.60;;
56997;SDS011;42890;44.244;22.530;2023-03-01T09:39:05;35.17;;;31.77;;
56997;SDS011;42890;44.244;22.530;2023-03-01T09:46:44;46.75;;;38.20;;
56997;SDS011;42890;44.244;22.530;2023-03-01T09:49:30;61.47;;;44.40;;
56997;SDS011;42890;44.244;22.530;2023-03-01T09:54:29;49.00;;;43.83;;
56997;SDS011;42890;44.244;22.530;2023-03-01T09:59:46;61.00;;;44.15;;
56997;SDS011;42890;44.244;22.530;2023-03-01T10:02:32;40.72;;;35.83;;
56997;SDS011;42890;44.244;22.530;2023-03-01T10:05:05;57.97;;;40.97;;
56997;SDS011;42890;44.244;22.530;2023-03-01T10:07:44;47.50;;;38.25;;
56997;SDS011;42890;44.244;22.530;2023-03-01T10:10:26;53.25;;;38.25;;
56997;SDS011;42890;44.244;22.530;2023-03-01T10:12:53;42.05;;;35.05;;
56997;SDS011;42890;44.244;22.530;2023-03-01T10:15:22;42.63;;;36.78;;
56997;SDS011;42890;44.244;22.530;2023-03-01T10:17:58;54.35;;;40.78;;
56997;SDS011;42890;44.244;22.530;2023-03-01T10:20:48;59.72;;;41.25;;
56997;SDS011;42890;44.244;22.530;2023-03-01T10:23:17;42.28;;;36.35;;
56997;SDS011;42890;44.244;22.530;2023-03-01T10:31:01;36.03;;;32.40;;
56997;SDS011;42890;44.244;22.530;2023-03-01T10:33:35;39.35;;;35.22;;
56997;SDS011;42890;44.244;22.530;2023-03-01T10:36:04;52.28;;;41.35;;
56997;SDS011;42890;44.244;22.530;2023-03-01T10:38:31;40.03;;;35.90;;
56997;SDS011;42890;44.244;22.530;2023-03-01T10:41:12;39.28;;;35.28;;
56997;SDS011;42890;44.244;22.530;2023-03-01T10:43:50;37.28;;;33.63;;
56997;SDS011;42890;44.244;22.530;2023-03-01T10:46:24;42.00;;;37.70;;
56997;SDS011;42890;44.244;22.530;2023-03-01T10:51:38;85.32;;;55.58;;
56997;SDS011;42890;44.244;22.530;2023-03-01T10:54:05;61.45;;;52.75;;
56997;SDS011;42890;44.244;22.530;2023-03-01T10:56:45;78.18;;;60.03;;
56997;SDS011;42890;44.244;22.530;2023-03-01T10:59:19;107.85;;;70.00;;
56997;SDS011;42890;44.244;22.530;2023-03-01T11:01:45;76.50;;;61.83;;
56997;SDS011;42890;44.244;22.530;2023-03-01T11:04:12;73.43;;;56.80;;
56997;SDS011;42890;44.244;22.530;2023-03-01T11:06:39;126.88;;;75.00;;
56997;SDS011;42890;44.244;22.530;2023-03-01T11:09:16;73.72;;;57.70;;
56997;SDS011;42890;44.244;22.530;2023-03-01T11:11:43;73.40;;;56.55;;
56997;SDS011;42890;44.244;22.530;2023-03-01T11:14:15;64.38;;;52.63;;
56997;SDS011;42890;44.244;22.530;2023-03-01T11:16:42;91.20;;;67.78;;
56997;SDS011;42890;44.244;22.530;2023-03-01T11:21:50;56.70;;;49.55;;
56997;SDS011;42890;44.244;22.530;2023-03-01T11:24:17;72.95;;;60.22;;
56997;SDS011;42890;44.244;22.530;2023-03-01T11:26:47;66.35;;;57.83;;
56997;SDS011;42890;44.244;22.530;2023-03-01T11:31:48;112.40;;;74.95;;
56997;SDS011;42890;44.244;22.530;2023-03-01T11:34:17;100.82;;;74.70;;
56997;SDS011;42890;44.244;22.530;2023-03-01T11:44:49;76.40;;;66.13;;
56997;SDS011;42890;44.244;22.530;2023-03-01T11:59:44;98.53;;;66.53;;
56997;SDS011;42890;44.244;22.530;2023-03-01T12:02:18;72.55;;;60.70;;
56997;SDS011;42890;44.244;22.530;2023-03-01T12:07:26;54.60;;;46.45;;
56997;SDS011;42890;44.244;22.530;2023-03-01T12:20:50;56.35;;;50.38;;
56997;SDS011;42890;44.244;22.530;2023-03-01T12:23:28;62.45;;;50.67;;
56997;SDS011;42890;44.244;22.530;2023-03-01T12:34:03;62.25;;;50.35;;
56997;SDS011;42890;44.244;22.530;2023-03-01T12:36:41;45.30;;;40.65;;
56997;SDS011;42890;44.244;22.530;2023-03-01T12:49:28;90.32;;;60.42;;
56997;SDS011;42890;44.244;22.530;2023-03-01T12:52:16;94.50;;;67.20;;
56997;SDS011;42890;44.244;22.530;2023-03-01T12:54:46;82.60;;;62.75;;
56997;SDS011;42890;44.244;22.530;2023-03-01T12:59:41;48.67;;;43.55;;
56997;SDS011;42890;44.244;22.530;2023-03-01T13:02:18;45.78;;;40.80;;
56997;SDS011;42890;44.244;22.530;2023-03-01T13:04:58;45.70;;;41.28;;
56997;SDS011;42890;44.244;22.530;2023-03-01T13:10:10;46.83;;;41.92;;
56997;SDS011;42890;44.244;22.530;2023-03-01T13:12:49;53.47;;;47.60;;
56997;SDS011;42890;44.244;22.530;2023-03-01T13:17:52;37.85;;;34.35;;
56997;SDS011;42890;44.244;22.530;2023-03-01T13:20:20;37.55;;;34.00;;
56997;SDS011;42890;44.244;22.530;2023-03-01T13:22:47;40.67;;;36.80;;
56997;SDS011;42890;44.244;22.530;2023-03-01T13:25:15;43.33;;;38.78;;
56997;SDS011;42890;44.244;22.530;2023-03-01T13:27:41;47.97;;;42.92;;
56997;SDS011;42890;44.244;22.530;2023-03-01T13:32:53;48.85;;;44.10;;
56997;SDS011;42890;44.244;22.530;2023-03-01T13:35:42;54.10;;;48.55;;
56997;SDS011;42890;44.244;22.530;2023-03-01T13:43:26;73.18;;;56.03;;
56997;SDS011;42890;44.244;22.530;2023-03-01T13:45:53;63.10;;;53.38;;
56997;SDS011;42890;44.244;22.530;2023-03-01T13:48:27;72.28;;;55.72;;
56997;SDS011;42890;44.244;22.530;2023-03-01T13:51:03;65.25;;;57.05;;
56997;SDS011;42890;44.244;22.530;2023-03-01T13:53:31;70.70;;;61.45;;
56997;SDS011;42890;44.244;22.530;2023-03-01T13:56:18;56.67;;;50.67;;
56997;SDS011;42890;44.244;22.530;2023-03-01T13:58:49;56.80;;;50.53;;
56997;SDS011;42890;44.244;22.530;2023-03-01T14:01:26;64.55;;;55.42;;
56997;SDS011;42890;44.244;22.530;2023-03-01T14:03:53;120.68;;;86.10;;
56997;SDS011;42890;44.244;22.530;2023-03-01T14:06:21;99.63;;;71.32;;
56997;SDS011;42890;44.244;22.530;2023-03-01T14:08:49;118.80;;;76.95;;
56997;SDS011;42890;44.244;22.530;2023-03-01T14:13:51;60.60;;;53.13;;
56997;SDS011;42890;44.244;22.530;2023-03-01T14:16:40;70.30;;;58.58;;
56997;SDS011;42890;44.244;22.530;2023-03-01T14:19:17;215.98;;;105.05;;
56997;SDS011;42890;44.244;22.530;2023-03-01T14:21:46;198.32;;;106.00;;
56997;SDS011;42890;44.244;22.530;2023-03-01T14:24:31;109.13;;;75.78;;
56997;SDS011;42890;44.244;22.530;2023-03-01T14:27:01;59.13;;;52.88;;
56997;SDS011;42890;44.244;22.530;2023-03-01T14:29:29;71.93;;;58.88;;
56997;SDS011;42890;44.244;22.530;2023-03-01T14:32:08;73.43;;;62.67;;
56997;SDS011;42890;44.244;22.530;2023-03-01T14:34:34;89.15;;;65.90;;
56997;SDS011;42890;44.244;22.530;2023-03-01T14:39:42;78.07;;;63.38;;
56997;SDS011;42890;44.244;22.530;2023-03-01T14:42:08;69.97;;;57.63;;
56997;SDS011;42890;44.244;22.530;2023-03-01T14:44:34;61.00;;;51.40;;
56997;SDS011;42890;44.244;22.530;2023-03-01T14:47:02;52.75;;;46.92;;
56997;SDS011;42890;44.244;22.530;2023-03-01T14:49:29;54.08;;;46.97;;
56997;SDS011;42890;44.244;22.530;2023-03-01T14:51:57;51.72;;;46.22;;
56997;SDS011;42890;44.244;22.530;2023-03-01T14:54:29;53.53;;;48.13;;
56997;SDS011;42890;44.244;22.530;2023-03-01T14:56:59;51.80;;;46.55;;
56997;SDS011;42890;44.244;22.530;2023-03-01T14:59:26;54.40;;;48.63;;
56997;SDS011;42890;44.244;22.530;2023-03-01T15:01:53;64.00;;;49.97;;
56997;SDS011;42890;44.244;22.530;2023-03-01T15:04:20;55.08;;;49.25;;
56997;SDS011;42890;44.244;22.530;2023-03-01T15:06:47;49.50;;;44.25;;
56997;SDS011;42890;44.244;22.530;2023-03-01T15:09:15;44.00;;;39.30;;
56997;SDS011;42890;44.244;22.530;2023-03-01T15:11:42;42.05;;;37.88;;
56997;SDS011;42890;44.244;22.530;2023-03-01T15:16:55;44.58;;;40.08;;
56997;SDS011;42890;44.244;22.530;2023-03-01T15:19:22;48.72;;;40.58;;
56997;SDS011;42890;44.244;22.530;2023-03-01T15:21:49;88.53;;;59.15;;
56997;SDS011;42890;44.244;22.530;2023-03-01T15:24:17;53.53;;;47.60;;
56997;SDS011;42890;44.244;22.530;2023-03-01T15:26:50;148.77;;;78.28;;
56997;SDS011;42890;44.244;22.530;2023-03-01T15:29:20;83.85;;;59.22;;
56997;SDS011;42890;44.244;22.530;2023-03-01T15:32:03;58.42;;;48.20;;
56997;SDS011;42890;44.244;22.530;2023-03-01T15:34:34;52.80;;;46.13;;
56997;SDS011;42890;44.244;22.530;2023-03-01T15:37:02;47.45;;;41.30;;
56997;SDS011;42890;44.244;22.530;2023-03-01T15:42:07;46.53;;;41.70;;
56997;SDS011;42890;44.244;22.530;2023-03-01T15:44:35;53.55;;;47.70;;
56997;SDS011;42890;44.244;22.530;2023-03-01T15:47:01;57.45;;;51.60;;
56997;SDS011;42890;44.244;22.530;2023-03-01T15:49:42;66.95;;;54.60;;
56997;SDS011;42890;44.244;22.530;2023-03-01T15:52:15;75.75;;;58.70;;
56997;SDS011;42890;44.244;22.530;2023-03-01T15:54:43;86.15;;;64.35;;
56997;SDS011;42890;44.244;22.530;2023-03-01T15:57:14;94.88;;;65.25;;
56997;SDS011;42890;44.244;22.530;2023-03-01T15:59:40;121.35;;;72.93;;
56997;SDS011;42890;44.244;22.530;2023-03-01T16:02:13;91.22;;;72.60;;
56997;SDS011;42890;44.244;22.530;2023-03-01T16:04:39;79.22;;;71.10;;
56997;SDS011;42890;44.244;22.530;2023-03-01T16:07:05;76.40;;;66.63;;
56997;SDS011;42890;44.244;22.530;2023-03-01T16:09:31;68.03;;;60.83;;